LGSA/CHQ METAR and TAF weather

Enter ICAO airport designator
Station Type Date Time Source
LGSA METAR 2019/05/26 22:50 UTC NOAA

LGSA 262250Z 13007KT 9999 FEW030 18/16 Q1014


Station Type Date Time Source
LGSA Decoded METAR 2019/05/26 22:50 UTC NOAA

Souda Airport , Greece (LGSA) 35-29N 024-07E 151M
May 26, 2019 - 06:50 PM EDT / 2019.05.26 2250 UTC
Wind: from the SE (130 degrees) at 8 MPH (7 KT):0
Visibility: greater than 7 mile(s):0
Sky conditions: mostly clear
Temperature: 64 F (18 C)
Dew Point: 60 F (16 C)
Relative Humidity: 88%
Pressure (altimeter): 29.94 in. Hg (1014 hPa)
ob: LGSA 262250Z 13007KT 9999 FEW030 18/16 Q1014
cycle: 23

Station Type Date Time Source
LGSA TAF 2019/05/26 18:12 UTC NOAA

TAF LGSA 261700Z 2618/2718 11012KT 9999 FEW025

Example: see airport list